Time;durP1;ratioP1;P1;durP2;ratioP2;P2;SDS_P1;SDS_P2;PMS_P1;PMS_P2;Temp;Humidity;BMP_temperature;BMP_pressure;BME280_temperature;BME280_humidity;BME280_pressure;Samples;Min_cycle;Max_cycle;Signal;HPM_P1;HPM_P2
2021/04/06 00:01:58;;;;;;;1.10;0.80;;;23.20;54.90;;;;;;5134141;28;20451;-83
2021/04/06 00:04:28;;;;;;;1.10;0.87;;;23.20;55.00;;;;;;5133890;28;20439;-83
2021/04/06 00:06:58;;;;;;;1.10;0.80;;;23.20;55.00;;;;;;5133982;28;20442;-84
2021/04/06 00:09:26;;;;;;;2.03;0.80;;;23.20;55.00;;;;;;5134172;28;20425;-83
2021/04/06 00:11:56;;;;;;;1.00;0.80;;;23.20;55.00;;;;;;5134036;28;20453;-83
2021/04/06 00:14:24;;;;;;;2.27;1.00;;;23.20;55.00;;;;;;5134021;28;20926;-83
2021/04/06 00:16:52;;;;;;;1.10;0.90;;;23.10;54.90;;;;;;5134038;28;20961;-83
2021/04/06 00:19:21;;;;;;;1.10;0.80;;;23.10;54.90;;;;;;5134190;28;20572;-83
2021/04/06 00:21:50;;;;;;;1.10;0.80;;;23.10;54.90;;;;;;5134082;28;20432;-84
2021/04/06 00:24:18;;;;;;;1.00;0.80;;;23.10;54.90;;;;;;5138406;27;20430;-83
2021/04/06 00:26:47;;;;;;;1.00;0.70;;;23.10;54.90;;;;;;5136137;27;20430;-83
2021/04/06 00:29:15;;;;;;;2.17;1.00;;;23.10;55.00;;;;;;5137830;27;20438;-83
2021/04/06 00:31:45;;;;;;;1.20;0.83;;;23.10;54.90;;;;;;5137842;27;20443;-83
2021/04/06 00:34:12;;;;;;;1.13;0.90;;;23.10;55.00;;;;;;5137858;27;20438;-83
2021/04/06 00:36:39;;;;;;;1.23;0.80;;;23.10;54.90;;;;;;5137498;27;20446;-83
2021/04/06 00:39:07;;;;;;;1.10;0.70;;;23.10;54.90;;;;;;5137571;27;20460;-83
2021/04/06 00:41:34;;;;;;;1.00;0.80;;;23.10;54.90;;;;;;5137677;27;20438;-83
2021/04/06 00:44:12;;;;;;;1.00;0.70;;;23.10;54.90;;;;;;5137315;27;20980;-83
2021/04/06 00:46:44;;;;;;;1.10;0.80;;;23.10;54.90;;;;;;5137586;27;20488;-84
2021/04/06 00:49:13;;;;;;;1.20;0.77;;;23.10;54.90;;;;;;5137404;27;20949;-83
2021/04/06 00:51:41;;;;;;;1.00;0.70;;;23.10;54.80;;;;;;5137474;27;20510;-83
2021/04/06 00:54:08;;;;;;;1.10;0.70;;;23.10;54.80;;;;;;5137360;27;20431;-83
2021/04/06 00:56:37;;;;;;;1.00;0.70;;;23.10;54.80;;;;;;5137355;27;20442;-83
2021/04/06 00:59:06;;;;;;;1.00;0.90;;;23.10;54.90;;;;;;5137302;27;20483;-83
2021/04/06 01:01:38;;;;;;;1.03;0.77;;;23.10;54.70;;;;;;5137309;27;20443;-84
2021/04/06 01:04:07;;;;;;;1.80;0.90;;;23.20;54.60;;;;;;5137037;27;20443;-83
2021/04/06 01:06:51;;;;;;;1.30;0.80;;;23.20;54.50;;;;;;5137004;27;20834;-83
2021/04/06 01:09:18;;;;;;;1.00;0.70;;;23.20;54.50;;;;;;5137111;27;20434;-83
2021/04/06 01:11:45;;;;;;;1.00;0.70;;;23.20;54.40;;;;;;5136871;27;20477;-84
2021/04/06 01:14:15;;;;;;;1.10;1.00;;;23.30;54.40;;;;;;5136968;27;20438;-84
2021/04/06 01:16:42;;;;;;;1.20;0.80;;;23.30;54.40;;;;;;5136952;27;20848;-83
2021/04/06 01:19:11;;;;;;;1.10;0.80;;;23.30;54.30;;;;;;5136715;27;20447;-84
2021/04/06 01:21:37;;;;;;;1.10;0.80;;;23.30;54.30;;;;;;5136890;27;20437;-83
2021/04/06 01:24:08;;;;;;;1.30;0.80;;;23.30;54.30;;;;;;5136643;27;20455;-83
2021/04/06 01:26:36;;;;;;;1.20;0.70;;;23.40;54.30;;;;;;5136653;27;20559;-83
2021/04/06 01:29:05;;;;;;;1.10;0.93;;;23.30;54.20;;;;;;5136728;27;20442;-84
2021/04/06 01:31:32;;;;;;;0.90;0.60;;;23.40;54.20;;;;;;5136554;27;20474;-83
2021/04/06 01:33:58;;;;;;;1.20;0.90;;;23.40;54.20;;;;;;5136573;27;20500;-84
2021/04/06 01:36:27;;;;;;;1.10;0.77;;;23.40;54.10;;;;;;5136262;27;20438;-84
2021/04/06 01:38:53;;;;;;;1.10;0.90;;;23.40;54.20;;;;;;5136334;27;20440;-83
2021/04/06 01:41:21;;;;;;;1.10;0.80;;;23.40;54.20;;;;;;5136372;27;20442;-84
2021/04/06 01:43:50;;;;;;;1.63;0.70;;;23.40;54.10;;;;;;5135980;27;20497;-83
2021/04/06 01:46:18;;;;;;;1.10;0.90;;;23.40;54.20;;;;;;5136156;27;20817;-83
2021/04/06 01:48:45;;;;;;;1.10;0.90;;;23.40;54.10;;;;;;5136545;27;20470;-83
2021/04/06 01:51:13;;;;;;;1.30;0.80;;;23.40;54.10;;;;;;5136259;27;20529;-83
2021/04/06 01:53:41;;;;;;;1.10;0.70;;;23.50;54.10;;;;;;5136874;27;20439;-84
2021/04/06 01:56:10;;;;;;;1.10;0.80;;;23.40;54.00;;;;;;5137261;27;20517;-83
2021/04/06 01:58:41;;;;;;;1.57;0.80;;;23.40;54.00;;;;;;5136259;27;20442;-84
2021/04/06 02:03:58;;;;;;;1.00;0.80;;;23.40;54.10;;;;;;5113006;28;20433;-84
2021/04/06 02:06:26;;;;;;;1.00;0.70;;;23.40;54.00;;;;;;5113340;28;20510;-83
2021/04/06 02:08:54;;;;;;;1.30;0.77;;;23.50;54.10;;;;;;5113265;28;20440;-83
2021/04/06 02:11:23;;;;;;;1.27;0.80;;;23.40;54.10;;;;;;5113130;28;20431;-83
2021/04/06 02:13:51;;;;;;;1.10;0.80;;;23.40;54.10;;;;;;5113170;28;20436;-83
2021/04/06 02:16:18;;;;;;;0.97;0.70;;;23.30;54.10;;;;;;5113052;28;20865;-83
2021/04/06 02:18:50;;;;;;;1.10;0.83;;;23.30;54.10;;;;;;5113183;28;20462;-83
2021/04/06 02:21:17;;;;;;;1.00;0.70;;;23.30;54.10;;;;;;5113218;28;20501;-83
2021/04/06 02:23:45;;;;;;;1.10;0.90;;;23.30;54.10;;;;;;5113054;28;20482;-83
2021/04/06 02:26:14;;;;;;;1.00;0.80;;;23.40;54.10;;;;;;5113147;28;20486;-83
2021/04/06 02:28:41;;;;;;;1.13;0.77;;;23.40;54.10;;;;;;5113012;28;20438;-83
2021/04/06 02:31:09;;;;;;;1.20;0.80;;;23.40;54.10;;;;;;5113416;28;20527;-83
2021/04/06 02:33:37;;;;;;;1.10;0.70;;;23.30;54.00;;;;;;5113197;28;20527;-83
2021/04/06 02:36:06;;;;;;;1.00;0.73;;;23.30;54.10;;;;;;5135871;27;20468;-83
2021/04/06 02:38:33;;;;;;;1.33;0.70;;;23.30;54.10;;;;;;5136114;27;20442;-83
2021/04/06 02:41:11;;;;;;;0.90;0.60;;;23.30;54.10;;;;;;5136749;27;20442;-83
2021/04/06 02:43:49;;;;;;;1.17;0.63;;;23.40;54.10;;;;;;5144938;27;20470;-83
2021/04/06 02:46:19;;;;;;;1.10;0.80;;;23.40;54.10;;;;;;5136552;27;20481;-84
2021/04/06 02:48:45;;;;;;;1.10;0.70;;;23.40;54.00;;;;;;5134991;27;20914;-83
2021/04/06 02:51:13;;;;;;;1.13;0.80;;;23.40;53.90;;;;;;5135625;27;20524;-83
2021/04/06 02:53:40;;;;;;;1.00;0.80;;;23.40;53.90;;;;;;5135307;27;20963;-83
2021/04/06 02:56:08;;;;;;;1.10;0.77;;;23.40;54.00;;;;;;5135008;27;20483;-83
2021/04/06 02:58:39;;;;;;;1.10;0.60;;;23.30;54.00;;;;;;5135006;27;20781;-83
2021/04/06 03:01:12;;;;;;;0.90;0.70;;;23.30;54.10;;;;;;5135127;27;20435;-83
2021/04/06 03:03:40;;;;;;;0.90;0.70;;;23.30;54.10;;;;;;5135006;27;20446;-83
2021/04/06 03:06:11;;;;;;;1.00;0.70;;;23.30;54.10;;;;;;5134698;27;20513;-83
2021/04/06 03:08:39;;;;;;;0.90;0.70;;;23.30;54.10;;;;;;5134952;27;20936;-83
2021/04/06 03:11:08;;;;;;;1.50;0.93;;;23.30;54.00;;;;;;5134634;27;20454;-83
2021/04/06 03:13:38;;;;;;;1.30;0.70;;;23.40;54.60;;;;;;5134704;27;20455;-83
2021/04/06 03:16:07;;;;;;;1.10;0.80;;;23.40;53.90;;;;;;5134832;27;20509;-83
2021/04/06 03:18:35;;;;;;;1.53;0.63;;;23.40;53.90;;;;;;5134635;27;20443;-83
2021/04/06 03:21:05;;;;;;;0.90;0.60;;;23.40;53.80;;;;;;5134608;27;20972;-83
2021/04/06 03:23:32;;;;;;;1.00;0.80;;;23.40;53.90;;;;;;5134447;27;20439;-83
2021/04/06 03:26:00;;;;;;;1.10;0.80;;;23.40;53.90;;;;;;5134343;27;20514;-83
2021/04/06 03:28:37;;;;;;;0.97;0.70;;;23.40;53.90;;;;;;5134587;27;20793;-83
2021/04/06 03:31:11;;;;;;;1.23;0.87;;;23.40;53.80;;;;;;5134467;27;20940;-83
2021/04/06 03:33:40;;;;;;;1.00;0.80;;;23.30;53.90;;;;;;5134470;27;20435;-83
2021/04/06 03:36:08;;;;;;;1.10;0.80;;;23.30;53.90;;;;;;5134507;27;20816;-83
2021/04/06 03:38:36;;;;;;;1.00;0.80;;;23.20;54.00;;;;;;5134415;27;20805;-84
2021/04/06 03:41:02;;;;;;;1.17;0.80;;;23.20;54.00;;;;;;5139165;27;20433;-83
2021/04/06 03:43:39;;;;;;;1.30;0.80;;;23.20;54.00;;;;;;5133919;27;20474;-84
2021/04/06 03:46:07;;;;;;;1.10;0.80;;;23.20;53.90;;;;;;5134089;27;20840;-83
2021/04/06 03:48:35;;;;;;;0.93;0.67;;;23.30;53.90;;;;;;5134181;28;20808;-84
2021/04/06 03:51:02;;;;;;;1.00;0.70;;;23.30;53.90;;;;;;5134001;28;20437;-83
2021/04/06 03:53:38;;;;;;;1.00;0.70;;;23.30;53.80;;;;;;5134144;28;20441;-83
2021/04/06 03:56:06;;;;;;;1.00;0.80;;;23.30;53.80;;;;;;5134063;28;20801;-84
2021/04/06 03:58:36;;;;;;;1.40;1.00;;;23.40;53.90;;;;;;5134138;28;20438;-84
2021/04/06 04:01:03;;;;;;;1.00;0.73;;;23.40;53.80;;;;;;5136612;27;20534;-83
2021/04/06 04:03:29;;;;;;;1.03;0.67;;;23.40;53.80;;;;;;5138335;27;20443;-84
2021/04/06 04:05:56;;;;;;;1.00;0.70;;;23.40;53.80;;;;;;5138293;27;20569;-84
2021/04/06 04:08:22;;;;;;;0.90;0.60;;;23.40;53.80;;;;;;5138213;27;20434;-84
2021/04/06 04:10:49;;;;;;;1.03;0.70;;;23.40;53.80;;;;;;5138116;27;20494;-83
2021/04/06 04:13:15;;;;;;;1.00;0.70;;;23.40;53.70;;;;;;5137995;27;20789;-84
2021/04/06 04:15:42;;;;;;;1.03;0.80;;;23.40;53.70;;;;;;5138111;27;20438;-84
2021/04/06 04:18:08;;;;;;;1.00;0.70;;;23.40;53.70;;;;;;5137924;27;20522;-84
2021/04/06 04:20:35;;;;;;;1.00;0.90;;;23.40;53.70;;;;;;5137889;27;20450;-84
2021/04/06 04:23:01;;;;;;;1.10;0.70;;;23.40;53.70;;;;;;5137843;27;20544;-83
2021/04/06 04:25:28;;;;;;;1.03;0.80;;;23.40;53.70;;;;;;5137789;27;20486;-83
2021/04/06 04:27:55;;;;;;;0.90;0.60;;;23.50;53.80;;;;;;5137866;27;20929;-83
2021/04/06 04:30:36;;;;;;;0.90;0.70;;;23.40;53.70;;;;;;5137713;27;20438;-84
2021/04/06 04:33:04;;;;;;;0.97;0.67;;;23.40;53.70;;;;;;5137763;27;20435;-83
2021/04/06 04:35:31;;;;;;;0.90;0.60;;;23.40;53.60;;;;;;5137596;27;20441;-84
2021/04/06 04:37:57;;;;;;;1.10;0.80;;;23.50;53.70;;;;;;5137704;27;20443;-84
2021/04/06 04:40:23;;;;;;;1.10;0.70;;;23.40;53.70;;;;;;5137487;27;20495;-84
2021/04/06 04:42:51;;;;;;;1.17;0.77;;;23.40;53.70;;;;;;5137118;27;20446;-84
2021/04/06 04:45:19;;;;;;;1.20;0.80;;;23.50;53.70;;;;;;5137493;27;20472;-84
2021/04/06 04:47:45;;;;;;;0.90;0.60;;;23.40;53.70;;;;;;5137381;27;20444;-84
2021/04/06 04:50:12;;;;;;;1.10;0.80;;;23.40;53.70;;;;;;5137395;27;20446;-83
2021/04/06 04:52:38;;;;;;;1.00;0.70;;;23.40;53.70;;;;;;5137411;27;20444;-83
2021/04/06 04:55:06;;;;;;;1.10;0.83;;;23.40;53.60;;;;;;5137300;27;20539;-84
2021/04/06 04:57:32;;;;;;;1.00;0.70;;;23.40;53.60;;;;;;5137215;27;20439;-84
2021/04/06 04:59:58;;;;;;;1.00;0.73;;;23.40;53.60;;;;;;5137235;27;20443;-84
2021/04/06 05:02:26;;;;;;;1.00;0.70;;;23.40;53.60;;;;;;5137188;27;20541;-83
2021/04/06 05:04:53;;;;;;;1.13;0.90;;;23.40;53.60;;;;;;5137068;27;20441;-83
2021/04/06 05:07:19;;;;;;;1.00;0.70;;;23.40;53.70;;;;;;5137082;27;20529;-84
2021/04/06 05:09:46;;;;;;;1.10;0.70;;;23.40;53.60;;;;;;5137128;27;20443;-84
2021/04/06 05:12:13;;;;;;;1.10;0.90;;;23.40;53.60;;;;;;5136146;27;20467;-84
2021/04/06 05:14:39;;;;;;;1.00;0.80;;;23.30;53.60;;;;;;5136938;27;20463;-83
2021/04/06 05:17:05;;;;;;;1.03;0.60;;;23.30;53.50;;;;;;5136764;27;20436;-83
2021/04/06 05:19:33;;;;;;;1.10;0.70;;;23.30;53.50;;;;;;5136799;27;20439;-84
2021/04/06 05:21:59;;;;;;;1.10;0.70;;;23.40;53.60;;;;;;5136802;27;20449;-84
2021/04/06 05:24:25;;;;;;;1.00;0.70;;;23.40;53.60;;;;;;5136693;27;20460;-83
2021/04/06 05:26:52;;;;;;;1.00;0.60;;;23.30;53.50;;;;;;5136494;27;20473;-84
2021/04/06 05:29:18;;;;;;;1.10;0.73;;;23.40;53.50;;;;;;5136589;27;20448;-84
2021/04/06 05:31:44;;;;;;;1.43;0.80;;;23.30;53.50;;;;;;5136677;27;20439;-84
2021/04/06 05:34:11;;;;;;;1.00;0.77;;;23.40;53.60;;;;;;5136635;27;20439;-84
2021/04/06 05:36:38;;;;;;;1.03;0.73;;;23.40;53.60;;;;;;5136466;27;20438;-83
2021/04/06 05:39:04;;;;;;;1.07;0.97;;;23.40;53.60;;;;;;5136609;27;20528;-83
2021/04/06 05:41:31;;;;;;;1.00;0.70;;;23.40;53.60;;;;;;5136235;27;20464;-83
2021/04/06 05:44:02;;;;;;;1.00;0.80;;;23.40;53.60;;;;;;5139301;27;20486;-83
2021/04/06 05:46:30;;;;;;;1.20;0.90;;;23.40;53.50;;;;;;5138366;27;20478;-84
2021/04/06 05:49:01;;;;;;;1.13;0.67;;;23.40;53.50;;;;;;5136252;27;20500;-83
2021/04/06 05:51:28;;;;;;;1.10;0.80;;;23.40;53.50;;;;;;5136391;27;20503;-83
2021/04/06 05:53:55;;;;;;;1.20;0.80;;;23.40;53.50;;;;;;5136260;27;20447;-84
2021/04/06 05:56:22;;;;;;;1.10;0.80;;;23.40;53.50;;;;;;5136161;27;20435;-84
2021/04/06 05:58:48;;;;;;;2.70;0.97;;;23.40;53.60;;;;;;5136074;27;20434;-86
2021/04/06 06:01:16;;;;;;;3.70;0.87;;;23.40;53.50;;;;;;5136031;27;20435;-83
2021/04/06 06:03:42;;;;;;;1.77;0.80;;;23.40;53.40;;;;;;5135955;27;20431;-84
2021/04/06 06:06:09;;;;;;;3.50;1.40;;;23.40;53.50;;;;;;5135612;27;20587;-83
2021/04/06 06:08:39;;;;;;;2.13;1.50;;;23.40;53.60;;;;;;5135809;27;20434;-83
2021/04/06 06:11:07;;;;;;;2.53;1.80;;;23.40;53.80;;;;;;5135996;27;20435;-83
2021/04/06 06:13:35;;;;;;;2.20;2.00;;;23.40;53.90;;;;;;5135999;27;20555;-84
2021/04/06 06:16:10;;;;;;;2.23;2.00;;;23.50;54.00;;;;;;5136015;27;20444;-84
2021/04/06 06:18:56;;;;;;;2.10;1.80;;;23.50;54.10;;;;;;5135933;27;20448;-84
2021/04/06 06:21:23;;;;;;;2.73;1.90;;;23.50;54.10;;;;;;5135666;27;20930;-84
2021/04/06 06:23:50;;;;;;;2.17;1.70;;;23.50;54.20;;;;;;5137955;27;20431;-84
2021/04/06 06:26:19;;;;;;;2.07;1.80;;;23.50;54.10;;;;;;5137004;27;21027;-84
2021/04/06 06:29:15;;;;;;;2.53;1.93;;;23.50;54.10;;;;;;5135974;27;20790;-84
2021/04/06 06:31:46;;;;;;;1.70;1.60;;;23.60;54.30;;;;;;5135933;27;20439;-84
2021/04/06 06:34:30;;;;;;;2.63;1.40;;;23.50;54.30;;;;;;5135707;27;20732;-84
2021/04/06 06:37:14;;;;;;;4.23;1.63;;;23.60;54.30;;;;;;5135539;27;20449;-84
2021/04/06 06:39:47;;;;;;;3.70;2.00;;;23.50;54.30;;;;;;5135632;27;20526;-83
2021/04/06 06:42:17;;;;;;;1.93;1.40;;;23.50;54.40;;;;;;5135175;27;20822;-83
2021/04/06 06:44:43;;;;;;;2.03;1.90;;;23.50;55.00;;;;;;5135413;27;20470;-84
2021/04/06 06:47:12;;;;;;;4.17;1.77;;;23.50;54.40;;;;;;5135175;27;20498;-84
2021/04/06 06:49:40;;;;;;;1.93;1.73;;;23.50;55.00;;;;;;5134981;27;20484;-84
2021/04/06 06:52:23;;;;;;;3.47;1.50;;;23.60;54.50;;;;;;5135333;27;20441;-83
2021/04/06 06:54:51;;;;;;;4.23;1.50;;;23.60;54.50;;;;;;5134834;27;20568;-83
2021/04/06 06:57:26;;;;;;;6.40;1.80;;;23.60;54.40;;;;;;5135008;27;20508;-84
2021/04/06 06:59:52;;;;;;;2.43;1.77;;;23.60;54.50;;;;;;5134925;27;20439;-87
2021/04/06 07:02:23;;;;;;;1.50;1.20;;;23.60;54.30;;;;;;5134982;27;20934;-83
2021/04/06 07:04:50;;;;;;;1.60;1.50;;;23.60;53.80;;;;;;5135220;27;20903;-84
2021/04/06 07:07:16;;;;;;;2.47;1.30;;;23.60;54.10;;;;;;5134939;27;20493;-84
2021/04/06 07:09:43;;;;;;;1.40;1.30;;;23.60;54.20;;;;;;5135131;27;20444;-84
2021/04/06 07:12:12;;;;;;;2.80;2.50;;;23.60;54.20;;;;;;5135240;27;20513;-84
2021/04/06 07:14:41;;;;;;;1.80;1.10;;;23.70;54.30;;;;;;5135273;27;20882;-89
2021/04/06 07:17:08;;;;;;;1.90;1.57;;;23.60;54.50;;;;;;5135043;27;20500;-86
2021/04/06 07:19:38;;;;;;;2.53;1.70;;;23.60;54.20;;;;;;5133883;27;20439;-85
2021/04/06 07:22:06;;;;;;;1.53;1.30;;;23.70;54.30;;;;;;5134379;27;21002;-86
2021/04/06 07:24:34;;;;;;;1.97;1.50;;;23.70;54.20;;;;;;5134452;27;20442;-85
2021/04/06 07:27:05;;;;;;;1.33;1.10;;;23.70;54.30;;;;;;5134374;27;20537;-85
2021/04/06 07:29:32;;;;;;;1.60;1.30;;;23.70;54.30;;;;;;5134557;27;20428;-86
2021/04/06 07:32:02;;;;;;;2.10;1.67;;;23.70;54.30;;;;;;5134464;27;20882;-85
2021/04/06 07:34:29;;;;;;;2.10;1.53;;;23.70;54.30;;;;;;5134118;27;20444;-85
2021/04/06 07:37:02;;;;;;;1.47;1.27;;;23.70;54.30;;;;;;5134226;27;20441;-85
2021/04/06 07:39:30;;;;;;;3.53;1.40;;;23.70;54.30;;;;;;5134348;27;20447;-85
2021/04/06 07:41:57;;;;;;;2.00;1.47;;;23.70;54.30;;;;;;5133994;27;20468;-85
2021/04/06 07:44:25;;;;;;;1.70;1.40;;;23.70;54.20;;;;;;5134099;27;20473;-86
2021/04/06 07:46:53;;;;;;;1.90;1.57;;;23.70;54.20;;;;;;5134056;27;20503;-86
2021/04/06 07:49:39;;;;;;;2.10;1.90;;;23.90;54.40;;;;;;5134352;28;20463;-86
2021/04/06 07:52:16;;;;;;;1.77;1.50;;;23.90;54.40;;;;;;5134252;28;20458;-85
2021/04/06 07:54:46;;;;;;;1.87;1.50;;;24.00;54.50;;;;;;5134117;28;20434;-86
2021/04/06 07:57:12;;;;;;;2.07;1.20;;;23.90;54.30;;;;;;5134093;28;20456;-86
2021/04/06 08:00:00;;;;;;;2.03;1.93;;;23.80;54.80;;;;;;5134076;28;20525;-86
2021/04/06 08:02:34;;;;;;;1.70;1.57;;;23.80;54.20;;;;;;5133974;28;20445;-86
2021/04/06 08:05:07;;;;;;;1.80;1.20;;;23.80;54.20;;;;;;5134118;27;20539;-86
2021/04/06 08:07:36;;;;;;;2.17;1.30;;;23.80;54.30;;;;;;5134201;27;20437;-86
2021/04/06 08:10:38;;;;;;;2.10;1.30;;;23.90;54.30;;;;;;5134061;27;20790;-87
2021/04/06 08:13:05;;;;;;;2.10;1.60;;;23.90;54.20;;;;;;5130043;27;20831;-86
2021/04/06 08:15:32;;;;;;;2.20;1.33;;;23.90;54.20;;;;;;5133930;28;20447;-86
2021/04/06 08:17:59;;;;;;;1.93;1.30;;;23.90;54.10;;;;;;5134004;28;20438;-86
2021/04/06 08:20:38;;;;;;;1.40;1.20;;;23.90;54.10;;;;;;5134189;28;20435;-86
2021/04/06 08:23:06;;;;;;;1.60;1.47;;;24.00;54.20;;;;;;5133824;28;20437;-86
2021/04/06 08:25:54;;;;;;;1.77;1.57;;;24.00;54.20;;;;;;5133807;28;20990;-86
2021/04/06 08:28:42;;;;;;;1.60;1.40;;;24.00;54.20;;;;;;5133858;28;20486;-86
2021/04/06 08:31:17;;;;;;;1.50;1.30;;;24.00;54.10;;;;;;5133903;28;20443;-85
2021/04/06 08:33:44;;;;;;;2.17;1.43;;;24.00;54.20;;;;;;5133587;28;20447;-86
2021/04/06 08:36:11;;;;;;;1.93;1.70;;;24.00;54.20;;;;;;5134014;28;20793;-86
2021/04/06 08:38:48;;;;;;;1.70;1.37;;;24.00;54.20;;;;;;5134040;27;20447;-86
2021/04/06 08:41:32;;;;;;;3.83;1.30;;;24.00;54.30;;;;;;5133742;28;20464;-85
2021/04/06 08:44:01;;;;;;;2.13;1.40;;;24.00;54.20;;;;;;5133889;28;20480;-85
2021/04/06 08:46:42;;;;;;;1.77;1.30;;;24.00;54.30;;;;;;5133951;27;20483;-85
2021/04/06 08:49:13;;;;;;;3.13;1.43;;;24.00;54.10;;;;;;5138015;27;20439;-85
2021/04/06 08:51:46;;;;;;;1.77;1.37;;;24.00;54.20;;;;;;5140944;27;20435;-89
2021/04/06 08:54:16;;;;;;;2.50;1.67;;;24.00;54.10;;;;;;5138895;27;20436;-87
2021/04/06 08:56:44;;;;;;;4.40;1.50;;;24.10;54.30;;;;;;5136321;27;21010;-88
2021/04/06 08:59:25;;;;;;;2.70;1.73;;;24.10;54.20;;;;;;5136648;27;20447;-89
2021/04/06 09:01:56;;;;;;;4.83;1.80;;;24.10;54.20;;;;;;5137306;27;20439;-86
2021/04/06 09:04:24;;;;;;;1.83;1.73;;;24.20;54.20;;;;;;5137265;27;20949;-87
2021/04/06 09:06:51;;;;;;;2.00;1.70;;;24.20;54.20;;;;;;5137074;27;20492;-87
2021/04/06 09:09:19;;;;;;;2.40;1.57;;;24.20;54.10;;;;;;5137311;27;20444;-87
2021/04/06 09:11:47;;;;;;;3.50;2.07;;;24.20;54.10;;;;;;5137133;27;20962;-87
2021/04/06 09:14:14;;;;;;;1.67;1.57;;;24.20;54.00;;;;;;5136983;27;20432;-86
2021/04/06 09:16:40;;;;;;;2.43;1.57;;;24.20;53.90;;;;;;5137018;27;20438;-86
2021/04/06 09:19:09;;;;;;;1.50;1.40;;;24.20;53.80;;;;;;5136960;27;20454;-87
2021/04/06 09:21:36;;;;;;;3.17;1.70;;;24.20;54.20;;;;;;5136893;27;20893;-86
2021/04/06 09:24:06;;;;;;;2.30;1.57;;;24.10;53.50;;;;;;5136449;27;20450;-87
2021/04/06 09:26:33;;;;;;;2.30;1.67;;;24.20;54.00;;;;;;5136631;27;21011;-87
2021/04/06 09:29:04;;;;;;;1.67;1.57;;;24.30;54.30;;;;;;5136967;27;20445;-87
2021/04/06 09:31:32;;;;;;;2.60;1.53;;;24.40;54.50;;;;;;5136785;27;20429;-87
2021/04/06 09:34:04;;;;;;;1.90;1.43;;;24.40;54.40;;;;;;5136886;27;20450;-86
2021/04/06 09:36:30;;;;;;;1.90;1.40;;;24.50;55.10;;;;;;5136543;27;20442;-87
2021/04/06 09:38:57;;;;;;;1.93;1.50;;;24.50;54.40;;;;;;5136776;27;20493;-87
2021/04/06 09:41:29;;;;;;;2.63;1.60;;;24.60;54.50;;;;;;5136548;27;20460;-87
2021/04/06 09:43:55;;;;;;;1.77;1.23;;;24.70;54.50;;;;;;5136361;27;21033;-88
2021/04/06 09:46:31;;;;;;;1.50;1.17;;;24.70;54.40;;;;;;5136736;27;20500;-89
2021/04/06 09:48:58;;;;;;;2.00;1.30;;;24.80;54.50;;;;;;5136834;27;20949;-88
2021/04/06 09:51:24;;;;;;;3.70;1.50;;;24.90;54.40;;;;;;5137412;27;20433;-92
2021/04/06 09:53:51;;;;;;;3.50;1.70;;;24.80;52.10;;;;;;5138176;27;20888;-88
2021/04/06 09:56:17;;;;;;;4.90;2.60;;;24.80;49.20;;;;;;5136692;27;20585;-89
2021/04/06 09:58:44;;;;;;;6.40;2.00;;;24.60;48.50;;;;;;5136352;27;20441;-89
2021/04/06 10:01:19;;;;;;;2.13;1.70;;;24.50;47.90;;;;;;5138762;27;20916;-92
2021/04/06 10:03:47;;;;;;;2.87;1.50;;;24.20;47.30;;;;;;5137224;27;20440;-88
2021/04/06 10:06:14;;;;;;;2.17;1.50;;;24.00;47.00;;;;;;5136203;27;20495;-88
2021/04/06 10:08:41;;;;;;;2.80;1.47;;;24.00;49.90;;;;;;5136516;27;20776;-88
2021/04/06 10:11:09;;;;;;;2.20;1.80;;;24.10;50.30;;;;;;5136358;27;20447;-88
2021/04/06 10:13:37;;;;;;;4.40;1.60;;;24.40;50.90;;;;;;5136217;27;20500;-88
2021/04/06 10:16:07;;;;;;;5.50;1.50;;;24.40;51.10;;;;;;5136419;27;20828;-88
2021/04/06 10:18:38;;;;;;;2.97;1.27;;;24.60;51.30;;;;;;5136365;27;20438;-88
2021/04/06 10:21:20;;;;;;;2.07;1.10;;;24.70;51.60;;;;;;5136437;27;21219;-88
2021/04/06 10:23:47;;;;;;;1.73;1.40;;;24.80;51.80;;;;;;5136381;27;20434;-87
2021/04/06 10:26:24;;;;;;;1.70;1.00;;;24.90;51.90;;;;;;5136676;27;20544;-92
2021/04/06 10:29:06;;;;;;;2.10;1.33;;;25.00;52.00;;;;;;5137425;27;20439;-95
2021/04/06 10:31:48;;;;;;;1.87;1.47;;;24.90;50.80;;;;;;5135664;27;20433;-87
2021/04/06 10:34:15;;;;;;;5.73;1.23;;;25.00;51.60;;;;;;5136766;27;20465;-86
2021/04/06 10:36:55;;;;;;;1.90;1.20;;;25.00;51.70;;;;;;5136109;27;20446;-86
2021/04/06 10:39:31;;;;;;;5.73;1.73;;;24.90;51.00;;;;;;5137007;27;20443;-79
2021/04/06 10:41:58;;;;;;;1.80;1.33;;;25.00;51.30;;;;;;5135349;27;20459;-81
2021/04/06 10:44:25;;;;;;;1.37;1.10;;;25.00;51.20;;;;;;5135064;27;20468;-82
2021/04/06 10:46:52;;;;;;;5.70;1.13;;;25.00;51.30;;;;;;5135432;27;20488;-87
2021/04/06 10:49:19;;;;;;;2.30;1.00;;;25.10;51.10;;;;;;5135585;27;20438;-87
2021/04/06 10:51:49;;;;;;;4.10;1.67;;;25.00;50.10;;;;;;5135736;27;20436;-88
2021/04/06 10:54:16;;;;;;;5.67;1.67;;;25.00;50.60;;;;;;5135600;27;20777;-88
2021/04/06 10:56:44;;;;;;;4.87;1.67;;;25.00;51.00;;;;;;5135519;27;20433;-88
2021/04/06 10:59:13;;;;;;;3.37;1.37;;;25.00;51.40;;;;;;5135247;27;20565;-87
2021/04/06 11:01:42;;;;;;;3.37;1.40;;;25.00;51.40;;;;;;5135258;27;20757;-88
2021/04/06 11:04:12;;;;;;;3.93;1.50;;;25.00;51.50;;;;;;5134985;27;20436;-82
2021/04/06 11:06:40;;;;;;;4.37;1.23;;;24.90;49.60;;;;;;5135005;27;21074;-88
2021/04/06 11:09:13;;;;;;;2.50;1.50;;;24.90;51.10;;;;;;5135100;27;20438;-88
2021/04/06 11:11:40;;;;;;;5.90;1.67;;;25.00;51.30;;;;;;5134696;27;20477;-87
2021/04/06 11:14:09;;;;;;;12.90;2.37;;;25.00;51.40;;;;;;5135148;27;20834;-88
2021/04/06 11:16:37;;;;;;;2.57;1.33;;;25.00;51.50;;;;;;5135021;27;20445;-89
2021/04/06 11:19:09;;;;;;;2.57;1.77;;;25.10;51.70;;;;;;5135409;27;20452;-88
2021/04/06 11:21:38;;;;;;;6.03;1.90;;;25.10;51.80;;;;;;5135299;27;20441;-89
2021/04/06 11:24:06;;;;;;;15.57;1.90;;;25.10;52.00;;;;;;5135119;27;20438;-87
2021/04/06 11:26:32;;;;;;;3.33;1.07;;;25.20;52.30;;;;;;5135090;27;20513;-89
2021/04/06 11:28:59;;;;;;;3.37;1.50;;;25.20;52.40;;;;;;5135037;27;20445;-88
2021/04/06 11:31:26;;;;;;;2.13;1.30;;;25.20;52.40;;;;;;5134804;27;20439;-89
2021/04/06 11:33:53;;;;;;;5.57;1.20;;;25.20;52.50;;;;;;5134487;27;20897;-88
2021/04/06 11:36:19;;;;;;;9.03;2.77;;;25.20;52.50;;;;;;5134638;27;20445;-89
2021/04/06 11:38:47;;;;;;;7.33;1.30;;;25.10;50.80;;;;;;5134766;27;20791;-88
2021/04/06 11:41:15;;;;;;;3.03;1.10;;;25.10;52.30;;;;;;5134453;27;20463;-89
2021/04/06 11:43:41;;;;;;;8.63;1.90;;;25.10;52.90;;;;;;5134219;27;20837;-90
2021/04/06 11:46:08;;;;;;;6.13;1.60;;;25.10;52.50;;;;;;5134420;27;20577;-84
2021/04/06 11:48:34;;;;;;;6.77;1.80;;;25.10;52.50;;;;;;5134677;27;20437;-85
2021/04/06 11:51:00;;;;;;;5.70;2.30;;;25.10;52.70;;;;;;5134760;28;20438;-84
2021/04/06 11:53:27;;;;;;;6.90;2.03;;;25.10;53.10;;;;;;5135132;28;20920;-85
2021/04/06 11:55:54;;;;;;;11.50;1.80;;;25.00;53.50;;;;;;5134362;28;20499;-87
2021/04/06 11:58:20;;;;;;;6.10;2.17;;;25.00;53.80;;;;;;5134297;28;20807;-82
2021/04/06 12:00:47;;;;;;;3.07;1.87;;;24.90;53.70;;;;;;5134281;28;20441;-82
2021/04/06 12:03:13;;;;;;;3.70;1.30;;;24.90;54.50;;;;;;5134267;28;20442;-82
2021/04/06 12:05:39;;;;;;;13.67;4.33;;;24.90;55.00;;;;;;5134240;28;20446;-82
2021/04/06 12:08:06;;;;;;;11.43;3.90;;;24.90;56.30;;;;;;5134287;28;20968;-82
2021/04/06 12:10:33;;;;;;;6.00;3.47;;;24.90;56.90;;;;;;5134167;28;20430;-82
2021/04/06 12:13:01;;;;;;;8.83;4.30;;;25.00;57.50;;;;;;5134546;27;20431;-87
2021/04/06 12:15:27;;;;;;;10.13;3.60;;;25.00;57.10;;;;;;5134255;28;20443;-87
2021/04/06 12:17:53;;;;;;;5.00;2.80;;;25.00;56.20;;;;;;5134410;28;20533;-88
2021/04/06 12:20:20;;;;;;;2.37;1.80;;;25.00;55.50;;;;;;5134727;27;20902;-86
2021/04/06 12:22:46;;;;;;;4.00;1.80;;;25.00;54.00;;;;;;5138251;27;20839;-82
2021/04/06 12:25:14;;;;;;;3.70;2.50;;;24.90;54.00;;;;;;5137923;27;20432;-82
2021/04/06 12:27:40;;;;;;;5.03;2.43;;;24.90;55.30;;;;;;5138149;27;20824;-82
2021/04/06 12:30:08;;;;;;;4.33;1.93;;;25.00;55.60;;;;;;5138080;27;20444;-82
2021/04/06 12:32:34;;;;;;;3.40;1.87;;;25.00;55.70;;;;;;5138160;27;20440;-82
2021/04/06 12:35:01;;;;;;;4.53;1.57;;;25.00;55.70;;;;;;5138141;27;20787;-82
2021/04/06 12:37:27;;;;;;;2.17;1.60;;;25.10;55.60;;;;;;5137701;27;20441;-83
2021/04/06 12:39:53;;;;;;;5.00;1.67;;;25.10;55.60;;;;;;5137653;27;20438;-82
2021/04/06 12:42:20;;;;;;;3.90;2.03;;;25.10;55.60;;;;;;5137528;27;20458;-83
2021/04/06 12:44:46;;;;;;;3.00;1.40;;;25.20;55.70;;;;;;5137593;27;20632;-83
2021/04/06 12:47:13;;;;;;;3.70;1.83;;;25.20;55.60;;;;;;5137535;27;20483;-82
2021/04/06 12:49:39;;;;;;;5.60;1.80;;;25.20;55.60;;;;;;5137801;27;20441;-82
2021/04/06 12:52:06;;;;;;;8.07;2.03;;;25.20;55.60;;;;;;5137580;27;20443;-82
2021/04/06 12:54:32;;;;;;;3.43;1.63;;;25.20;55.60;;;;;;5137581;27;20498;-82
2021/04/06 12:56:58;;;;;;;6.00;1.50;;;25.30;55.60;;;;;;5137674;27;20762;-82
2021/04/06 12:59:25;;;;;;;4.87;1.57;;;25.30;55.50;;;;;;5137456;27;20443;-82